sensor_id;sensor_type;location;lat;lon;timestamp;temperature;humidity
27439;DHT22;14887;51.252;7.470;2023-09-30T00:01:08;11.30;99.90
27439;DHT22;14887;51.252;7.470;2023-09-30T00:03:34;11.30;99.90
27439;DHT22;14887;51.252;7.470;2023-09-30T00:06:00;11.20;99.90
27439;DHT22;14887;51.252;7.470;2023-09-30T00:08:25;11.20;99.90
27439;DHT22;14887;51.252;7.470;2023-09-30T00:10:51;11.20;99.90
27439;DHT22;14887;51.252;7.470;2023-09-30T00:13:18;11.10;99.90
27439;DHT22;14887;51.252;7.470;2023-09-30T00:15:44;11.20;99.90
27439;DHT22;14887;51.252;7.470;2023-09-30T00:18:09;11.10;99.90
27439;DHT22;14887;51.252;7.470;2023-09-30T00:20:35;11.10;99.90
27439;DHT22;14887;51.252;7.470;2023-09-30T00:23:01;11.10;99.90
27439;DHT22;14887;51.252;7.470;2023-09-30T00:25:26;11.10;99.90
27439;DHT22;14887;51.252;7.470;2023-09-30T00:27:53;11.10;99.90
27439;DHT22;14887;51.252;7.470;2023-09-30T00:30:18;11.10;99.90
27439;DHT22;14887;51.252;7.470;2023-09-30T00:32:44;11.10;99.90
27439;DHT22;14887;51.252;7.470;2023-09-30T00:35:09;11.00;99.90
27439;DHT22;14887;51.252;7.470;2023-09-30T00:37:40;11.10;99.90
27439;DHT22;14887;51.252;7.470;2023-09-30T00:40:06;11.10;99.90
27439;DHT22;14887;51.252;7.470;2023-09-30T00:42:32;11.10;99.90
27439;DHT22;14887;51.252;7.470;2023-09-30T00:44:58;11.10;99.90
27439;DHT22;14887;51.252;7.470;2023-09-30T00:47:23;11.20;99.90
27439;DHT22;14887;51.252;7.470;2023-09-30T00:49:50;11.10;99.90
27439;DHT22;14887;51.252;7.470;2023-09-30T00:52:17;11.20;99.90
27439;DHT22;14887;51.252;7.470;2023-09-30T00:54:43;11.20;99.90
27439;DHT22;14887;51.252;7.470;2023-09-30T00:57:09;11.20;99.90
27439;DHT22;14887;51.252;7.470;2023-09-30T00:59:35;11.20;99.90
27439;DHT22;14887;51.252;7.470;2023-09-30T01:02:01;11.20;99.90
27439;DHT22;14887;51.252;7.470;2023-09-30T01:04:28;11.20;99.90
27439;DHT22;14887;51.252;7.470;2023-09-30T01:06:54;11.10;99.90
27439;DHT22;14887;51.252;7.470;2023-09-30T01:09:20;11.00;99.90
27439;DHT22;14887;51.252;7.470;2023-09-30T01:11:46;11.00;99.90
27439;DHT22;14887;51.252;7.470;2023-09-30T01:16:51;11.00;99.90
27439;DHT22;14887;51.252;7.470;2023-09-30T01:19:17;11.00;99.90
27439;DHT22;14887;51.252;7.470;2023-09-30T01:21:43;11.00;99.90
27439;DHT22;14887;51.252;7.470;2023-09-30T01:24:14;11.00;99.90
27439;DHT22;14887;51.252;7.470;2023-09-30T01:26:39;11.00;99.90
27439;DHT22;14887;51.252;7.470;2023-09-30T01:29:05;11.00;99.90
27439;DHT22;14887;51.252;7.470;2023-09-30T01:31:31;11.10;99.90
27439;DHT22;14887;51.252;7.470;2023-09-30T01:33:56;11.00;99.90
27439;DHT22;14887;51.252;7.470;2023-09-30T01:36:22;11.10;99.90
27439;DHT22;14887;51.252;7.470;2023-09-30T01:38:48;11.10;99.90
27439;DHT22;14887;51.252;7.470;2023-09-30T01:41:13;11.10;99.90
27439;DHT22;14887;51.252;7.470;2023-09-30T01:43:39;11.10;99.90
27439;DHT22;14887;51.252;7.470;2023-09-30T01:46:04;11.10;99.90
27439;DHT22;14887;51.252;7.470;2023-09-30T01:48:31;11.10;99.90
27439;DHT22;14887;51.252;7.470;2023-09-30T01:50:57;11.10;99.90
27439;DHT22;14887;51.252;7.470;2023-09-30T01:53:23;11.10;99.90
27439;DHT22;14887;51.252;7.470;2023-09-30T01:55:48;11.10;99.90
27439;DHT22;14887;51.252;7.470;2023-09-30T01:58:14;11.10;99.90
27439;DHT22;14887;51.252;7.470;2023-09-30T02:00:39;11.10;99.90
27439;DHT22;14887;51.252;7.470;2023-09-30T02:03:05;11.10;99.90
27439;DHT22;14887;51.252;7.470;2023-09-30T02:05:31;11.10;99.90
27439;DHT22;14887;51.252;7.470;2023-09-30T02:07:58;11.10;99.90
27439;DHT22;14887;51.252;7.470;2023-09-30T02:10:23;11.10;99.90
27439;DHT22;14887;51.252;7.470;2023-09-30T02:12:49;11.10;99.90
27439;DHT22;14887;51.252;7.470;2023-09-30T02:15:14;11.10;99.90
27439;DHT22;14887;51.252;7.470;2023-09-30T02:17:41;11.10;99.90
27439;DHT22;14887;51.252;7.470;2023-09-30T02:20:11;11.10;99.90
27439;DHT22;14887;51.252;7.470;2023-09-30T02:22:41;11.10;99.90
27439;DHT22;14887;51.252;7.470;2023-09-30T02:25:07;11.00;99.90
27439;DHT22;14887;51.252;7.470;2023-09-30T02:27:33;11.00;99.90
27439;DHT22;14887;51.252;7.470;2023-09-30T02:29:59;10.90;99.90
27439;DHT22;14887;51.252;7.470;2023-09-30T02:32:25;10.90;99.90
27439;DHT22;14887;51.252;7.470;2023-09-30T02:34:51;10.90;99.90
27439;DHT22;14887;51.252;7.470;2023-09-30T02:37:16;10.90;99.90
27439;DHT22;14887;51.252;7.470;2023-09-30T02:39:44;10.90;99.90
27439;DHT22;14887;51.252;7.470;2023-09-30T02:42:10;10.90;99.90
27439;DHT22;14887;51.252;7.470;2023-09-30T02:44:35;10.80;99.90
27439;DHT22;14887;51.252;7.470;2023-09-30T02:47:01;10.70;99.90
27439;DHT22;14887;51.252;7.470;2023-09-30T02:49:27;10.70;99.90
27439;DHT22;14887;51.252;7.470;2023-09-30T02:51:53;10.70;99.90
27439;DHT22;14887;51.252;7.470;2023-09-30T02:54:18;10.70;99.90
27439;DHT22;14887;51.252;7.470;2023-09-30T02:56:44;10.70;99.90
27439;DHT22;14887;51.252;7.470;2023-09-30T02:59:12;10.70;99.90
27439;DHT22;14887;51.252;7.470;2023-09-30T03:01:38;10.70;99.90
27439;DHT22;14887;51.252;7.470;2023-09-30T03:04:04;10.70;99.90
27439;DHT22;14887;51.252;7.470;2023-09-30T03:06:35;10.70;99.90
27439;DHT22;14887;51.252;7.470;2023-09-30T03:09:04;10.70;99.90
27439;DHT22;14887;51.252;7.470;2023-09-30T03:11:31;10.70;99.90
27439;DHT22;14887;51.252;7.470;2023-09-30T03:13:57;10.70;99.90
27439;DHT22;14887;51.252;7.470;2023-09-30T03:16:23;10.80;99.90
27439;DHT22;14887;51.252;7.470;2023-09-30T03:18:50;10.80;99.90
27439;DHT22;14887;51.252;7.470;2023-09-30T03:21:16;10.80;99.90
27439;DHT22;14887;51.252;7.470;2023-09-30T03:23:42;10.80;99.90
27439;DHT22;14887;51.252;7.470;2023-09-30T03:26:08;10.70;99.90
27439;DHT22;14887;51.252;7.470;2023-09-30T03:28:36;10.80;99.90
27439;DHT22;14887;51.252;7.470;2023-09-30T03:31:03;10.70;99.90
27439;DHT22;14887;51.252;7.470;2023-09-30T03:33:34;10.70;99.90
27439;DHT22;14887;51.252;7.470;2023-09-30T03:35:59;10.70;99.90
27439;DHT22;14887;51.252;7.470;2023-09-30T03:38:28;10.60;99.90
27439;DHT22;14887;51.252;7.470;2023-09-30T03:40:54;10.60;99.90
27439;DHT22;14887;51.252;7.470;2023-09-30T03:43:21;10.60;99.90
27439;DHT22;14887;51.252;7.470;2023-09-30T03:45:47;10.60;99.90
27439;DHT22;14887;51.252;7.470;2023-09-30T03:48:12;10.60;99.90
27439;DHT22;14887;51.252;7.470;2023-09-30T03:50:38;10.60;99.90
27439;DHT22;14887;51.252;7.470;2023-09-30T03:53:05;10.60;99.90
27439;DHT22;14887;51.252;7.470;2023-09-30T03:55:32;10.50;99.90
27439;DHT22;14887;51.252;7.470;2023-09-30T03:57:59;10.70;99.90
27439;DHT22;14887;51.252;7.470;2023-09-30T04:00:24;10.70;99.90
27439;DHT22;14887;51.252;7.470;2023-09-30T04:02:53;10.70;99.90
27439;DHT22;14887;51.252;7.470;2023-09-30T04:05:24;10.80;99.90
27439;DHT22;14887;51.252;7.470;2023-09-30T04:08:02;10.80;99.90
27439;DHT22;14887;51.252;7.470;2023-09-30T04:10:27;10.80;99.90
27439;DHT22;14887;51.252;7.470;2023-09-30T04:12:55;10.70;99.90
27439;DHT22;14887;51.252;7.470;2023-09-30T04:15:21;10.70;99.90
27439;DHT22;14887;51.252;7.470;2023-09-30T04:17:48;10.80;99.90
27439;DHT22;14887;51.252;7.470;2023-09-30T04:20:14;10.70;99.90
27439;DHT22;14887;51.252;7.470;2023-09-30T04:22:46;10.70;99.90
27439;DHT22;14887;51.252;7.470;2023-09-30T04:25:14;10.70;99.90
27439;DHT22;14887;51.252;7.470;2023-09-30T04:27:42;10.60;99.90
27439;DHT22;14887;51.252;7.470;2023-09-30T04:30:08;10.60;99.90
27439;DHT22;14887;51.252;7.470;2023-09-30T04:32:36;10.60;99.90
27439;DHT22;14887;51.252;7.470;2023-09-30T04:35:03;10.60;99.90
27439;DHT22;14887;51.252;7.470;2023-09-30T04:37:29;10.60;99.90
27439;DHT22;14887;51.252;7.470;2023-09-30T04:39:54;10.60;99.90
27439;DHT22;14887;51.252;7.470;2023-09-30T04:42:20;10.60;99.90
27439;DHT22;14887;51.252;7.470;2023-09-30T04:44:46;10.60;99.90
27439;DHT22;14887;51.252;7.470;2023-09-30T04:47:11;10.60;99.90
27439;DHT22;14887;51.252;7.470;2023-09-30T04:49:37;10.50;99.90
27439;DHT22;14887;51.252;7.470;2023-09-30T04:52:03;10.50;99.90
27439;DHT22;14887;51.252;7.470;2023-09-30T04:54:30;10.40;99.90
27439;DHT22;14887;51.252;7.470;2023-09-30T04:56:56;10.40;99.90
27439;DHT22;14887;51.252;7.470;2023-09-30T04:59:21;10.40;99.90
27439;DHT22;14887;51.252;7.470;2023-09-30T05:01:50;10.40;99.90
27439;DHT22;14887;51.252;7.470;2023-09-30T05:04:16;10.40;99.90
27439;DHT22;14887;51.252;7.470;2023-09-30T05:06:42;10.40;99.90
27439;DHT22;14887;51.252;7.470;2023-09-30T05:09:08;10.40;99.90
27439;DHT22;14887;51.252;7.470;2023-09-30T05:11:33;10.30;99.90
27439;DHT22;14887;51.252;7.470;2023-09-30T05:14:00;10.30;99.90
27439;DHT22;14887;51.252;7.470;2023-09-30T05:16:26;10.30;99.90
27439;DHT22;14887;51.252;7.470;2023-09-30T05:18:52;10.30;99.90
27439;DHT22;14887;51.252;7.470;2023-09-30T05:21:18;10.30;99.90
27439;DHT22;14887;51.252;7.470;2023-09-30T05:23:43;10.30;99.90
27439;DHT22;14887;51.252;7.470;2023-09-30T05:26:09;10.30;99.90
27439;DHT22;14887;51.252;7.470;2023-09-30T05:28:34;10.20;99.90
27439;DHT22;14887;51.252;7.470;2023-09-30T05:31:00;10.20;99.90
27439;DHT22;14887;51.252;7.470;2023-09-30T05:33:26;10.20;99.90
27439;DHT22;14887;51.252;7.470;2023-09-30T05:35:53;10.30;99.90
27439;DHT22;14887;51.252;7.470;2023-09-30T05:38:20;10.20;99.90
27439;DHT22;14887;51.252;7.470;2023-09-30T05:40:46;10.10;99.90
27439;DHT22;14887;51.252;7.470;2023-09-30T05:43:11;10.00;99.90
27439;DHT22;14887;51.252;7.470;2023-09-30T05:45:39;10.00;99.90
27439;DHT22;14887;51.252;7.470;2023-09-30T05:48:14;10.00;99.90
27439;DHT22;14887;51.252;7.470;2023-09-30T05:50:41;10.00;99.90
27439;DHT22;14887;51.252;7.470;2023-09-30T05:53:08;10.00;99.90
27439;DHT22;14887;51.252;7.470;2023-09-30T05:55:36;10.10;99.90
27439;DHT22;14887;51.252;7.470;2023-09-30T05:58:02;10.10;99.90
27439;DHT22;14887;51.252;7.470;2023-09-30T06:00:28;10.10;99.90
27439;DHT22;14887;51.252;7.470;2023-09-30T06:02:58;10.10;99.90
27439;DHT22;14887;51.252;7.470;2023-09-30T06:05:24;10.10;99.90
27439;DHT22;14887;51.252;7.470;2023-09-30T06:07:52;10.10;99.90
27439;DHT22;14887;51.252;7.470;2023-09-30T06:10:19;10.10;99.90
27439;DHT22;14887;51.252;7.470;2023-09-30T06:12:46;10.10;99.90
27439;DHT22;14887;51.252;7.470;2023-09-30T06:15:16;10.10;99.90
27439;DHT22;14887;51.252;7.470;2023-09-30T06:17:43;10.10;99.90
27439;DHT22;14887;51.252;7.470;2023-09-30T06:20:09;10.20;99.90
27439;DHT22;14887;51.252;7.470;2023-09-30T06:22:42;10.20;99.90
27439;DHT22;14887;51.252;7.470;2023-09-30T06:25:09;10.20;99.90
27439;DHT22;14887;51.252;7.470;2023-09-30T06:27:35;10.30;99.90
27439;DHT22;14887;51.252;7.470;2023-09-30T06:30:01;10.30;99.90
27439;DHT22;14887;51.252;7.470;2023-09-30T06:32:26;10.30;99.90
27439;DHT22;14887;51.252;7.470;2023-09-30T06:34:52;10.30;99.90
27439;DHT22;14887;51.252;7.470;2023-09-30T06:37:18;10.30;99.90
27439;DHT22;14887;51.252;7.470;2023-09-30T06:39:45;10.30;99.90
27439;DHT22;14887;51.252;7.470;2023-09-30T06:42:10;10.40;99.90
27439;DHT22;14887;51.252;7.470;2023-09-30T06:44:36;10.40;99.90
27439;DHT22;14887;51.252;7.470;2023-09-30T06:47:02;10.40;99.90
27439;DHT22;14887;51.252;7.470;2023-09-30T06:49:28;10.40;99.90
27439;DHT22;14887;51.252;7.470;2023-09-30T06:51:53;10.40;99.90
27439;DHT22;14887;51.252;7.470;2023-09-30T06:54:19;10.40;99.90
27439;DHT22;14887;51.252;7.470;2023-09-30T06:56:44;10.30;99.90
27439;DHT22;14887;51.252;7.470;2023-09-30T06:59:10;10.20;99.90
27439;DHT22;14887;51.252;7.470;2023-09-30T07:01:35;10.30;99.90
27439;DHT22;14887;51.252;7.470;2023-09-30T07:04:02;10.30;99.90
27439;DHT22;14887;51.252;7.470;2023-09-30T07:06:28;10.30;99.90
27439;DHT22;14887;51.252;7.470;2023-09-30T07:08:54;10.40;99.90
27439;DHT22;14887;51.252;7.470;2023-09-30T07:11:29;10.50;99.90
27439;DHT22;14887;51.252;7.470;2023-09-30T07:13:57;10.60;99.90
27439;DHT22;14887;51.252;7.470;2023-09-30T07:16:23;10.70;99.90
27439;DHT22;14887;51.252;7.470;2023-09-30T07:18:49;10.70;99.90
27439;DHT22;14887;51.252;7.470;2023-09-30T07:21:15;10.80;99.90
27439;DHT22;14887;51.252;7.470;2023-09-30T07:23:41;11.00;99.90
27439;DHT22;14887;51.252;7.470;2023-09-30T07:26:07;11.40;99.90
27439;DHT22;14887;51.252;7.470;2023-09-30T07:28:33;11.80;99.90
27439;DHT22;14887;51.252;7.470;2023-09-30T07:30:59;12.20;99.90
27439;DHT22;14887;51.252;7.470;2023-09-30T07:33:24;12.70;99.90
27439;DHT22;14887;51.252;7.470;2023-09-30T07:35:50;13.40;99.90
27439;DHT22;14887;51.252;7.470;2023-09-30T07:38:15;14.10;1.00
27439;DHT22;14887;51.252;7.470;2023-09-30T07:40:41;14.90;1.00
27439;DHT22;14887;51.252;7.470;2023-09-30T07:43:08;15.50;1.00
27439;DHT22;14887;51.252;7.470;2023-09-30T07:45:34;16.10;99.90
27439;DHT22;14887;51.252;7.470;2023-09-30T07:47:59;16.50;64.50
27439;DHT22;14887;51.252;7.470;2023-09-30T07:50:25;17.00;99.90
27439;DHT22;14887;51.252;7.470;2023-09-30T07:52:51;17.30;34.50
27439;DHT22;14887;51.252;7.470;2023-09-30T07:55:16;17.60;1.00
27439;DHT22;14887;51.252;7.470;2023-09-30T07:57:44;17.80;1.00
27439;DHT22;14887;51.252;7.470;2023-09-30T08:00:10;18.10;99.90
27439;DHT22;14887;51.252;7.470;2023-09-30T08:02:41;18.20;99.90
27439;DHT22;14887;51.252;7.470;2023-09-30T08:05:06;18.30;99.90
27439;DHT22;14887;51.252;7.470;2023-09-30T08:07:33;17.90;99.90
27439;DHT22;14887;51.252;7.470;2023-09-30T08:09:59;18.00;99.90
27439;DHT22;14887;51.252;7.470;2023-09-30T08:12:25;18.00;99.90
27439;DHT22;14887;51.252;7.470;2023-09-30T08:14:50;17.80;1.00
27439;DHT22;14887;51.252;7.470;2023-09-30T08:17:17;18.00;1.00
27439;DHT22;14887;51.252;7.470;2023-09-30T08:19:44;17.90;99.90
27439;DHT22;14887;51.252;7.470;2023-09-30T08:22:09;17.80;1.00
27439;DHT22;14887;51.252;7.470;2023-09-30T08:24:35;17.90;99.90
27439;DHT22;14887;51.252;7.470;2023-09-30T08:27:01;17.60;99.90
27439;DHT22;14887;51.252;7.470;2023-09-30T08:29:27;17.60;1.00
27439;DHT22;14887;51.252;7.470;2023-09-30T08:31:52;17.20;1.00
27439;DHT22;14887;51.252;7.470;2023-09-30T08:34:18;17.50;99.90
27439;DHT22;14887;51.252;7.470;2023-09-30T08:36:46;17.70;1.00
27439;DHT22;14887;51.252;7.470;2023-09-30T08:39:12;18.30;99.90
27439;DHT22;14887;51.252;7.470;2023-09-30T08:41:38;18.30;99.90
27439;DHT22;14887;51.252;7.470;2023-09-30T08:44:04;18.10;99.90
27439;DHT22;14887;51.252;7.470;2023-09-30T08:46:31;18.10;99.90
27439;DHT22;14887;51.252;7.470;2023-09-30T08:48:58;18.40;99.90
27439;DHT22;14887;51.252;7.470;2023-09-30T08:51:26;18.80;99.90
27439;DHT22;14887;51.252;7.470;2023-09-30T08:53:55;19.10;99.90
27439;DHT22;14887;51.252;7.470;2023-09-30T08:56:26;19.30;1.00
27439;DHT22;14887;51.252;7.470;2023-09-30T08:58:54;18.80;1.00
27439;DHT22;14887;51.252;7.470;2023-09-30T09:01:22;18.70;75.50
27439;DHT22;14887;51.252;7.470;2023-09-30T09:03:48;18.80;99.90
27439;DHT22;14887;51.252;7.470;2023-09-30T09:06:18;18.30;99.90
27439;DHT22;14887;51.252;7.470;2023-09-30T09:08:44;18.30;99.90
27439;DHT22;14887;51.252;7.470;2023-09-30T09:11:10;18.40;99.90
27439;DHT22;14887;51.252;7.470;2023-09-30T09:13:51;18.10;99.90
27439;DHT22;14887;51.252;7.470;2023-09-30T09:16:22;17.50;99.90
27439;DHT22;14887;51.252;7.470;2023-09-30T09:18:49;17.20;1.00
27439;DHT22;14887;51.252;7.470;2023-09-30T09:21:19;16.60;1.00
27439;DHT22;14887;51.252;7.470;2023-09-30T09:23:47;16.70;1.00
27439;DHT22;14887;51.252;7.470;2023-09-30T09:28:49;17.10;99.90
27439;DHT22;14887;51.252;7.470;2023-09-30T09:31:35;17.50;99.90
27439;DHT22;14887;51.252;7.470;2023-09-30T09:34:02;18.30;99.90
27439;DHT22;14887;51.252;7.470;2023-09-30T09:39:04;18.90;1.00
27439;DHT22;14887;51.252;7.470;2023-09-30T09:41:30;19.20;1.00
27439;DHT22;14887;51.252;7.470;2023-09-30T09:43:59;19.40;1.00
27439;DHT22;14887;51.252;7.470;2023-09-30T09:46:26;19.00;1.00
27439;DHT22;14887;51.252;7.470;2023-09-30T09:48:53;18.60;1.00
27439;DHT22;14887;51.252;7.470;2023-09-30T09:51:20;18.80;1.00
27439;DHT22;14887;51.252;7.470;2023-09-30T09:53:46;19.10;1.00
27439;DHT22;14887;51.252;7.470;2023-09-30T09:56:15;19.70;1.00
27439;DHT22;14887;51.252;7.470;2023-09-30T09:58:42;19.60;1.00
27439;DHT22;14887;51.252;7.470;2023-09-30T10:01:09;19.60;1.00
27439;DHT22;14887;51.252;7.470;2023-09-30T10:03:36;19.50;1.00
27439;DHT22;14887;51.252;7.470;2023-09-30T10:06:02;19.30;1.00
27439;DHT22;14887;51.252;7.470;2023-09-30T10:08:39;19.20;1.00
27439;DHT22;14887;51.252;7.470;2023-09-30T10:11:06;19.00;1.00
27439;DHT22;14887;51.252;7.470;2023-09-30T10:13:54;19.00;1.00
27439;DHT22;14887;51.252;7.470;2023-09-30T10:19:15;20.10;1.00
27439;DHT22;14887;51.252;7.470;2023-09-30T10:24:52;20.20;99.90
27439;DHT22;14887;51.252;7.470;2023-09-30T10:30:06;20.40;99.90
27439;DHT22;14887;51.252;7.470;2023-09-30T10:35:21;20.10;1.00
27439;DHT22;14887;51.252;7.470;2023-09-30T10:37:47;20.40;1.00
27439;DHT22;14887;51.252;7.470;2023-09-30T10:40:29;20.70;1.00
27439;DHT22;14887;51.252;7.470;2023-09-30T10:42:55;20.90;99.90
27439;DHT22;14887;51.252;7.470;2023-09-30T10:51:01;20.70;99.90
27439;DHT22;14887;51.252;7.470;2023-09-30T10:53:30;20.90;99.90
27439;DHT22;14887;51.252;7.470;2023-09-30T10:56:00;20.80;99.90
27439;DHT22;14887;51.252;7.470;2023-09-30T10:58:46;20.90;99.90
27439;DHT22;14887;51.252;7.470;2023-09-30T11:01:13;20.90;99.90
27439;DHT22;14887;51.252;7.470;2023-09-30T11:03:42;20.30;99.90
27439;DHT22;14887;51.252;7.470;2023-09-30T11:06:14;19.70;99.90
27439;DHT22;14887;51.252;7.470;2023-09-30T11:08:46;18.90;99.90
27439;DHT22;14887;51.252;7.470;2023-09-30T11:11:12;18.10;1.00
27439;DHT22;14887;51.252;7.470;2023-09-30T11:13:39;17.60;1.00
27439;DHT22;14887;51.252;7.470;2023-09-30T11:16:05;17.50;1.00
27439;DHT22;14887;51.252;7.470;2023-09-30T11:18:31;17.80;1.00
27439;DHT22;14887;51.252;7.470;2023-09-30T11:21:10;18.10;99.90
27439;DHT22;14887;51.252;7.470;2023-09-30T11:23:38;18.60;99.90
27439;DHT22;14887;51.252;7.470;2023-09-30T11:26:05;18.80;99.90
27439;DHT22;14887;51.252;7.470;2023-09-30T11:28:39;19.30;99.90
27439;DHT22;14887;51.252;7.470;2023-09-30T11:31:08;19.50;99.90
27439;DHT22;14887;51.252;7.470;2023-09-30T11:33:53;19.80;99.90
27439;DHT22;14887;51.252;7.470;2023-09-30T11:36:22;20.20;99.90
27439;DHT22;14887;51.252;7.470;2023-09-30T11:38:49;20.90;99.90
27439;DHT22;14887;51.252;7.470;2023-09-30T11:41:16;21.10;99.90
27439;DHT22;14887;51.252;7.470;2023-09-30T11:44:05;21.00;99.90
27439;DHT22;14887;51.252;7.470;2023-09-30T11:46:32;20.60;99.90
27439;DHT22;14887;51.252;7.470;2023-09-30T11:49:03;20.70;99.90
27439;DHT22;14887;51.252;7.470;2023-09-30T11:51:30;20.60;99.90
27439;DHT22;14887;51.252;7.470;2023-09-30T11:54:08;20.20;99.90
27439;DHT22;14887;51.252;7.470;2023-09-30T11:56:35;19.70;99.90
27439;DHT22;14887;51.252;7.470;2023-09-30T11:59:02;19.60;99.90
27439;DHT22;14887;51.252;7.470;2023-09-30T12:01:29;19.80;99.90
27439;DHT22;14887;51.252;7.470;2023-09-30T12:03:58;20.40;99.90
27439;DHT22;14887;51.252;7.470;2023-09-30T12:06:23;20.70;99.90
27439;DHT22;14887;51.252;7.470;2023-09-30T12:08:49;20.80;99.90
27439;DHT22;14887;51.252;7.470;2023-09-30T12:11:17;20.50;99.90
27439;DHT22;14887;51.252;7.470;2023-09-30T12:13:43;19.90;99.90
27439;DHT22;14887;51.252;7.470;2023-09-30T12:16:10;19.30;99.90
27439;DHT22;14887;51.252;7.470;2023-09-30T12:18:38;18.90;99.90
27439;DHT22;14887;51.252;7.470;2023-09-30T12:21:04;18.50;99.90
27439;DHT22;14887;51.252;7.470;2023-09-30T12:23:32;18.20;99.90
27439;DHT22;14887;51.252;7.470;2023-09-30T12:25:57;18.10;99.90
27439;DHT22;14887;51.252;7.470;2023-09-30T12:28:23;18.10;99.90
27439;DHT22;14887;51.252;7.470;2023-09-30T12:30:48;18.10;99.90
27439;DHT22;14887;51.252;7.470;2023-09-30T12:33:14;18.20;99.90
27439;DHT22;14887;51.252;7.470;2023-09-30T12:35:39;18.40;99.90
27439;DHT22;14887;51.252;7.470;2023-09-30T12:38:05;18.50;99.90
27439;DHT22;14887;51.252;7.470;2023-09-30T12:40:30;18.90;99.90
27439;DHT22;14887;51.252;7.470;2023-09-30T12:42:56;19.20;99.90
27439;DHT22;14887;51.252;7.470;2023-09-30T12:45:23;18.90;99.90
27439;DHT22;14887;51.252;7.470;2023-09-30T12:47:48;18.90;99.90
27439;DHT22;14887;51.252;7.470;2023-09-30T12:50:17;18.90;99.90
27439;DHT22;14887;51.252;7.470;2023-09-30T12:52:43;19.10;99.90
27439;DHT22;14887;51.252;7.470;2023-09-30T12:55:09;20.00;99.90
27439;DHT22;14887;51.252;7.470;2023-09-30T12:57:36;21.10;99.90
27439;DHT22;14887;51.252;7.470;2023-09-30T13:00:02;22.10;99.90
27439;DHT22;14887;51.252;7.470;2023-09-30T13:02:28;22.60;99.90
27439;DHT22;14887;51.252;7.470;2023-09-30T13:04:54;23.00;99.90
27439;DHT22;14887;51.252;7.470;2023-09-30T13:07:20;23.00;99.90
27439;DHT22;14887;51.252;7.470;2023-09-30T13:09:45;23.30;99.90
27439;DHT22;14887;51.252;7.470;2023-09-30T13:12:11;23.10;99.90
27439;DHT22;14887;51.252;7.470;2023-09-30T13:14:37;23.00;99.90
27439;DHT22;14887;51.252;7.470;2023-09-30T13:17:04;23.70;99.90
27439;DHT22;14887;51.252;7.470;2023-09-30T13:19:29;24.10;99.90
27439;DHT22;14887;51.252;7.470;2023-09-30T13:21:55;24.20;99.90
27439;DHT22;14887;51.252;7.470;2023-09-30T13:24:21;24.20;99.90
27439;DHT22;14887;51.252;7.470;2023-09-30T13:26:47;24.40;99.90
27439;DHT22;14887;51.252;7.470;2023-09-30T13:29:12;25.00;99.90
27439;DHT22;14887;51.252;7.470;2023-09-30T13:31:39;24.40;99.90
27439;DHT22;14887;51.252;7.470;2023-09-30T13:34:05;23.80;99.90
27439;DHT22;14887;51.252;7.470;2023-09-30T13:36:31;23.30;99.90
27439;DHT22;14887;51.252;7.470;2023-09-30T13:38:56;23.00;99.90
27439;DHT22;14887;51.252;7.470;2023-09-30T13:41:22;23.30;99.90
27439;DHT22;14887;51.252;7.470;2023-09-30T13:43:48;23.80;99.90
27439;DHT22;14887;51.252;7.470;2023-09-30T13:46:14;23.60;99.90
27439;DHT22;14887;51.252;7.470;2023-09-30T13:48:41;23.70;99.90
27439;DHT22;14887;51.252;7.470;2023-09-30T13:51:08;23.80;99.90
27439;DHT22;14887;51.252;7.470;2023-09-30T13:53:33;23.90;99.90
27439;DHT22;14887;51.252;7.470;2023-09-30T13:55:59;24.10;99.90
27439;DHT22;14887;51.252;7.470;2023-09-30T13:58:25;24.50;99.90
27439;DHT22;14887;51.252;7.470;2023-09-30T14:00:51;24.40;99.90
27439;DHT22;14887;51.252;7.470;2023-09-30T14:03:20;24.80;99.90
27439;DHT22;14887;51.252;7.470;2023-09-30T14:05:46;25.10;99.90
27439;DHT22;14887;51.252;7.470;2023-09-30T14:08:12;24.90;99.90
27439;DHT22;14887;51.252;7.470;2023-09-30T14:10:38;25.30;99.90
27439;DHT22;14887;51.252;7.470;2023-09-30T14:13:04;25.30;99.90
27439;DHT22;14887;51.252;7.470;2023-09-30T14:15:30;25.30;99.90
27439;DHT22;14887;51.252;7.470;2023-09-30T14:17:59;25.40;99.90
27439;DHT22;14887;51.252;7.470;2023-09-30T14:20:25;25.60;99.90
27439;DHT22;14887;51.252;7.470;2023-09-30T14:22:51;25.50;99.90
27439;DHT22;14887;51.252;7.470;2023-09-30T14:25:20;25.50;99.90
27439;DHT22;14887;51.252;7.470;2023-09-30T14:27:47;25.40;99.90
27439;DHT22;14887;51.252;7.470;2023-09-30T14:30:13;24.70;99.90
27439;DHT22;14887;51.252;7.470;2023-09-30T14:32:39;24.70;99.90
27439;DHT22;14887;51.252;7.470;2023-09-30T14:35:06;24.30;99.90
27439;DHT22;14887;51.252;7.470;2023-09-30T14:37:32;23.70;99.90
27439;DHT22;14887;51.252;7.470;2023-09-30T14:39:57;23.10;99.90
27439;DHT22;14887;51.252;7.470;2023-09-30T14:42:23;23.00;99.90
27439;DHT22;14887;51.252;7.470;2023-09-30T14:44:49;23.70;99.90
27439;DHT22;14887;51.252;7.470;2023-09-30T14:47:14;23.80;99.90
27439;DHT22;14887;51.252;7.470;2023-09-30T14:49:40;23.40;99.90
27439;DHT22;14887;51.252;7.470;2023-09-30T14:52:06;23.00;99.90
27439;DHT22;14887;51.252;7.470;2023-09-30T14:54:32;23.00;99.90
27439;DHT22;14887;51.252;7.470;2023-09-30T14:56:58;22.50;99.90
27439;DHT22;14887;51.252;7.470;2023-09-30T14:59:24;22.50;99.90
27439;DHT22;14887;51.252;7.470;2023-09-30T15:01:49;22.80;99.90
27439;DHT22;14887;51.252;7.470;2023-09-30T15:04:15;23.20;99.90
27439;DHT22;14887;51.252;7.470;2023-09-30T15:06:41;23.60;99.90
27439;DHT22;14887;51.252;7.470;2023-09-30T15:09:07;23.70;99.90
27439;DHT22;14887;51.252;7.470;2023-09-30T15:11:39;23.50;99.90
27439;DHT22;14887;51.252;7.470;2023-09-30T15:14:06;22.80;99.90
27439;DHT22;14887;51.252;7.470;2023-09-30T15:16:31;22.20;99.90
27439;DHT22;14887;51.252;7.470;2023-09-30T15:18:57;21.40;99.90
27439;DHT22;14887;51.252;7.470;2023-09-30T15:21:23;20.90;99.90
27439;DHT22;14887;51.252;7.470;2023-09-30T15:23:50;20.70;99.90
27439;DHT22;14887;51.252;7.470;2023-09-30T15:26:15;20.50;99.90
27439;DHT22;14887;51.252;7.470;2023-09-30T15:28:41;20.20;99.90
27439;DHT22;14887;51.252;7.470;2023-09-30T15:31:07;19.90;99.90
27439;DHT22;14887;51.252;7.470;2023-09-30T15:33:33;19.60;99.90
27439;DHT22;14887;51.252;7.470;2023-09-30T15:35:59;19.70;99.90
27439;DHT22;14887;51.252;7.470;2023-09-30T15:38:25;19.60;99.90
27439;DHT22;14887;51.252;7.470;2023-09-30T15:40:52;19.60;99.90
27439;DHT22;14887;51.252;7.470;2023-09-30T15:43:19;19.40;99.90
27439;DHT22;14887;51.252;7.470;2023-09-30T15:45:44;19.00;99.90
27439;DHT22;14887;51.252;7.470;2023-09-30T15:48:10;18.70;99.90
27439;DHT22;14887;51.252;7.470;2023-09-30T15:50:37;18.50;99.90
27439;DHT22;14887;51.252;7.470;2023-09-30T15:53:03;18.30;99.90
27439;DHT22;14887;51.252;7.470;2023-09-30T15:55:29;18.10;99.90